sensor_id;sensor_type;location;lat;lon;timestamp;P1;durP1;ratioP1;P2;durP2;ratioP2
12886;SDS011;6511;49.746;6.094;2022-12-18T00:02:12;59.57;;;30.17;;
12886;SDS011;6511;49.746;6.094;2022-12-18T00:04:38;60.13;;;30.33;;
12886;SDS011;6511;49.746;6.094;2022-12-18T00:07:03;59.03;;;29.10;;
12886;SDS011;6511;49.746;6.094;2022-12-18T00:09:29;57.43;;;29.73;;
12886;SDS011;6511;49.746;6.094;2022-12-18T00:11:55;56.20;;;29.37;;
12886;SDS011;6511;49.746;6.094;2022-12-18T00:14:20;58.63;;;29.17;;
12886;SDS011;6511;49.746;6.094;2022-12-18T00:16:46;56.80;;;28.13;;
12886;SDS011;6511;49.746;6.094;2022-12-18T00:19:12;51.92;;;26.60;;
12886;SDS011;6511;49.746;6.094;2022-12-18T00:21:38;53.22;;;27.02;;
12886;SDS011;6511;49.746;6.094;2022-12-18T00:24:05;57.85;;;28.65;;
12886;SDS011;6511;49.746;6.094;2022-12-18T00:26:31;60.07;;;28.30;;
12886;SDS011;6511;49.746;6.094;2022-12-18T00:28:59;61.95;;;30.15;;
12886;SDS011;6511;49.746;6.094;2022-12-18T00:31:25;59.70;;;29.70;;
12886;SDS011;6511;49.746;6.094;2022-12-18T00:33:51;60.20;;;30.38;;
12886;SDS011;6511;49.746;6.094;2022-12-18T00:36:20;58.97;;;29.15;;
12886;SDS011;6511;49.746;6.094;2022-12-18T00:38:48;58.03;;;28.75;;
12886;SDS011;6511;49.746;6.094;2022-12-18T00:41:14;63.20;;;30.05;;
12886;SDS011;6511;49.746;6.094;2022-12-18T00:43:59;58.28;;;29.38;;
12886;SDS011;6511;49.746;6.094;2022-12-18T00:46:26;60.10;;;29.60;;
12886;SDS011;6511;49.746;6.094;2022-12-18T00:48:51;59.17;;;29.10;;
12886;SDS011;6511;49.746;6.094;2022-12-18T00:51:17;64.63;;;31.07;;
12886;SDS011;6511;49.746;6.094;2022-12-18T00:53:42;66.47;;;31.85;;
12886;SDS011;6511;49.746;6.094;2022-12-18T00:56:08;65.70;;;31.83;;
12886;SDS011;6511;49.746;6.094;2022-12-18T00:58:33;62.90;;;30.87;;
12886;SDS011;6511;49.746;6.094;2022-12-18T01:00:59;64.17;;;30.73;;
12886;SDS011;6511;49.746;6.094;2022-12-18T01:03:24;60.17;;;30.63;;
12886;SDS011;6511;49.746;6.094;2022-12-18T01:05:50;55.97;;;28.20;;
12886;SDS011;6511;49.746;6.094;2022-12-18T01:08:15;57.77;;;28.80;;
12886;SDS011;6511;49.746;6.094;2022-12-18T01:10:41;53.42;;;27.27;;
12886;SDS011;6511;49.746;6.094;2022-12-18T01:13:06;56.90;;;28.53;;
12886;SDS011;6511;49.746;6.094;2022-12-18T01:15:32;52.67;;;25.88;;
12886;SDS011;6511;49.746;6.094;2022-12-18T01:17:57;50.43;;;25.00;;
12886;SDS011;6511;49.746;6.094;2022-12-18T01:20:23;48.80;;;25.37;;
12886;SDS011;6511;49.746;6.094;2022-12-18T01:22:48;47.22;;;23.23;;
12886;SDS011;6511;49.746;6.094;2022-12-18T01:25:14;51.60;;;23.60;;
12886;SDS011;6511;49.746;6.094;2022-12-18T01:27:39;49.42;;;24.15;;
12886;SDS011;6511;49.746;6.094;2022-12-18T01:30:05;46.93;;;24.17;;
12886;SDS011;6511;49.746;6.094;2022-12-18T01:32:31;49.00;;;24.65;;
12886;SDS011;6511;49.746;6.094;2022-12-18T01:34:57;50.85;;;24.88;;
12886;SDS011;6511;49.746;6.094;2022-12-18T01:37:22;50.03;;;25.02;;
12886;SDS011;6511;49.746;6.094;2022-12-18T01:39:48;49.17;;;24.83;;
12886;SDS011;6511;49.746;6.094;2022-12-18T01:42:14;49.30;;;24.23;;
12886;SDS011;6511;49.746;6.094;2022-12-18T01:49:56;46.60;;;23.63;;
12886;SDS011;6511;49.746;6.094;2022-12-18T01:52:24;50.05;;;23.40;;
12886;SDS011;6511;49.746;6.094;2022-12-18T01:54:53;46.97;;;23.27;;
12886;SDS011;6511;49.746;6.094;2022-12-18T01:57:19;45.33;;;22.77;;
12886;SDS011;6511;49.746;6.094;2022-12-18T01:59:45;48.37;;;23.03;;
12886;SDS011;6511;49.746;6.094;2022-12-18T02:02:14;49.93;;;23.70;;
12886;SDS011;6511;49.746;6.094;2022-12-18T02:04:41;47.92;;;23.20;;
12886;SDS011;6511;49.746;6.094;2022-12-18T02:07:11;46.07;;;22.80;;
12886;SDS011;6511;49.746;6.094;2022-12-18T02:15:13;45.80;;;23.65;;
12886;SDS011;6511;49.746;6.094;2022-12-18T02:17:45;49.85;;;25.08;;
12886;SDS011;6511;49.746;6.094;2022-12-18T02:20:22;47.78;;;24.40;;
12886;SDS011;6511;49.746;6.094;2022-12-18T02:23:16;45.97;;;22.77;;
12886;SDS011;6511;49.746;6.094;2022-12-18T02:26:20;47.17;;;23.50;;
12886;SDS011;6511;49.746;6.094;2022-12-18T02:29:08;49.33;;;23.88;;
12886;SDS011;6511;49.746;6.094;2022-12-18T02:31:49;46.28;;;23.92;;
12886;SDS011;6511;49.746;6.094;2022-12-18T02:34:18;45.38;;;23.05;;
12886;SDS011;6511;49.746;6.094;2022-12-18T02:36:46;48.80;;;23.73;;
12886;SDS011;6511;49.746;6.094;2022-12-18T02:39:14;46.40;;;23.15;;
12886;SDS011;6511;49.746;6.094;2022-12-18T02:41:40;44.00;;;22.35;;
12886;SDS011;6511;49.746;6.094;2022-12-18T02:44:08;45.58;;;22.75;;
12886;SDS011;6511;49.746;6.094;2022-12-18T02:46:39;46.83;;;23.57;;
12886;SDS011;6511;49.746;6.094;2022-12-18T02:51:55;49.03;;;24.77;;
12886;SDS011;6511;49.746;6.094;2022-12-18T02:57:15;48.53;;;23.40;;
12886;SDS011;6511;49.746;6.094;2022-12-18T02:59:56;46.47;;;22.80;;
12886;SDS011;6511;49.746;6.094;2022-12-18T03:03:13;46.47;;;22.63;;
12886;SDS011;6511;49.746;6.094;2022-12-18T03:05:17;44.85;;;22.48;;
12886;SDS011;6511;49.746;6.094;2022-12-18T03:10:16;42.20;;;21.63;;
12886;SDS011;6511;49.746;6.094;2022-12-18T03:12:47;45.40;;;21.45;;
12886;SDS011;6511;49.746;6.094;2022-12-18T03:15:19;40.55;;;21.05;;
12886;SDS011;6511;49.746;6.094;2022-12-18T03:17:55;42.20;;;21.80;;
12886;SDS011;6511;49.746;6.094;2022-12-18T03:20:28;43.22;;;20.90;;
12886;SDS011;6511;49.746;6.094;2022-12-18T03:22:58;43.38;;;20.92;;
12886;SDS011;6511;49.746;6.094;2022-12-18T03:25:29;41.85;;;20.67;;
12886;SDS011;6511;49.746;6.094;2022-12-18T03:27:56;38.42;;;20.40;;
12886;SDS011;6511;49.746;6.094;2022-12-18T03:30:25;42.65;;;21.08;;
12886;SDS011;6511;49.746;6.094;2022-12-18T03:33:15;54.53;;;25.45;;
12886;SDS011;6511;49.746;6.094;2022-12-18T03:35:44;47.60;;;23.08;;
12886;SDS011;6511;49.746;6.094;2022-12-18T03:38:11;43.10;;;22.33;;
12886;SDS011;6511;49.746;6.094;2022-12-18T03:40:45;46.95;;;22.85;;
12886;SDS011;6511;49.746;6.094;2022-12-18T03:46:33;49.08;;;24.13;;
12886;SDS011;6511;49.746;6.094;2022-12-18T03:49:09;48.00;;;23.95;;
12886;SDS011;6511;49.746;6.094;2022-12-18T03:51:45;46.67;;;23.88;;
12886;SDS011;6511;49.746;6.094;2022-12-18T03:54:17;42.58;;;22.30;;
12886;SDS011;6511;49.746;6.094;2022-12-18T03:56:48;45.45;;;22.48;;
12886;SDS011;6511;49.746;6.094;2022-12-18T03:59:19;51.15;;;24.88;;
12886;SDS011;6511;49.746;6.094;2022-12-18T04:01:47;44.78;;;23.38;;
12886;SDS011;6511;49.746;6.094;2022-12-18T04:04:15;47.92;;;23.25;;
12886;SDS011;6511;49.746;6.094;2022-12-18T04:06:42;49.17;;;23.48;;
12886;SDS011;6511;49.746;6.094;2022-12-18T04:09:09;62.30;;;29.63;;
12886;SDS011;6511;49.746;6.094;2022-12-18T04:11:35;45.53;;;22.27;;
12886;SDS011;6511;49.746;6.094;2022-12-18T04:14:00;45.30;;;21.23;;
12886;SDS011;6511;49.746;6.094;2022-12-18T04:16:26;42.57;;;21.40;;
12886;SDS011;6511;49.746;6.094;2022-12-18T04:18:52;42.20;;;21.40;;
12886;SDS011;6511;49.746;6.094;2022-12-18T04:21:18;41.15;;;20.35;;
12886;SDS011;6511;49.746;6.094;2022-12-18T04:23:44;41.13;;;20.00;;
12886;SDS011;6511;49.746;6.094;2022-12-18T04:26:10;41.83;;;20.25;;
12886;SDS011;6511;49.746;6.094;2022-12-18T04:28:35;37.93;;;20.20;;
12886;SDS011;6511;49.746;6.094;2022-12-18T04:31:01;39.05;;;20.38;;
12886;SDS011;6511;49.746;6.094;2022-12-18T04:33:27;37.92;;;19.50;;
12886;SDS011;6511;49.746;6.094;2022-12-18T04:35:52;39.80;;;20.30;;
12886;SDS011;6511;49.746;6.094;2022-12-18T04:38:18;42.40;;;21.63;;
12886;SDS011;6511;49.746;6.094;2022-12-18T04:40:43;41.60;;;20.50;;
12886;SDS011;6511;49.746;6.094;2022-12-18T04:43:09;39.40;;;19.90;;
12886;SDS011;6511;49.746;6.094;2022-12-18T04:45:35;40.40;;;20.37;;
12886;SDS011;6511;49.746;6.094;2022-12-18T04:48:00;37.83;;;19.45;;
12886;SDS011;6511;49.746;6.094;2022-12-18T04:50:27;39.42;;;19.65;;
12886;SDS011;6511;49.746;6.094;2022-12-18T04:52:53;38.38;;;20.13;;
12886;SDS011;6511;49.746;6.094;2022-12-18T04:55:19;43.75;;;20.80;;
12886;SDS011;6511;49.746;6.094;2022-12-18T04:57:44;43.67;;;21.33;;
12886;SDS011;6511;49.746;6.094;2022-12-18T05:00:10;43.45;;;20.95;;
12886;SDS011;6511;49.746;6.094;2022-12-18T05:02:36;37.55;;;19.58;;
12886;SDS011;6511;49.746;6.094;2022-12-18T05:05:02;39.53;;;20.63;;
12886;SDS011;6511;49.746;6.094;2022-12-18T05:07:28;42.13;;;20.65;;
12886;SDS011;6511;49.746;6.094;2022-12-18T05:09:53;42.83;;;20.47;;
12886;SDS011;6511;49.746;6.094;2022-12-18T05:12:19;39.78;;;20.35;;
12886;SDS011;6511;49.746;6.094;2022-12-18T05:14:44;39.87;;;19.93;;
12886;SDS011;6511;49.746;6.094;2022-12-18T05:17:10;38.97;;;19.55;;
12886;SDS011;6511;49.746;6.094;2022-12-18T05:19:35;40.57;;;20.60;;
12886;SDS011;6511;49.746;6.094;2022-12-18T05:22:01;39.25;;;19.70;;
12886;SDS011;6511;49.746;6.094;2022-12-18T05:24:26;41.57;;;19.27;;
12886;SDS011;6511;49.746;6.094;2022-12-18T05:26:52;37.17;;;18.73;;
12886;SDS011;6511;49.746;6.094;2022-12-18T05:29:17;37.13;;;19.17;;
12886;SDS011;6511;49.746;6.094;2022-12-18T05:31:43;34.60;;;18.35;;
12886;SDS011;6511;49.746;6.094;2022-12-18T05:34:09;33.07;;;17.60;;
12886;SDS011;6511;49.746;6.094;2022-12-18T05:36:34;37.10;;;18.75;;
12886;SDS011;6511;49.746;6.094;2022-12-18T05:39:00;34.80;;;18.87;;
12886;SDS011;6511;49.746;6.094;2022-12-18T05:41:26;34.65;;;18.25;;
12886;SDS011;6511;49.746;6.094;2022-12-18T05:43:51;37.22;;;18.90;;
12886;SDS011;6511;49.746;6.094;2022-12-18T05:46:17;38.53;;;19.57;;
12886;SDS011;6511;49.746;6.094;2022-12-18T05:48:43;38.88;;;18.98;;
12886;SDS011;6511;49.746;6.094;2022-12-18T05:51:11;36.85;;;18.75;;
12886;SDS011;6511;49.746;6.094;2022-12-18T05:53:41;41.15;;;19.23;;
12886;SDS011;6511;49.746;6.094;2022-12-18T05:56:10;36.50;;;18.58;;
12886;SDS011;6511;49.746;6.094;2022-12-18T05:58:41;35.07;;;18.10;;
12886;SDS011;6511;49.746;6.094;2022-12-18T06:01:17;33.50;;;17.37;;
12886;SDS011;6511;49.746;6.094;2022-12-18T06:03:44;31.88;;;17.27;;
12886;SDS011;6511;49.746;6.094;2022-12-18T06:06:27;33.25;;;17.23;;
12886;SDS011;6511;49.746;6.094;2022-12-18T06:08:54;36.65;;;18.10;;
12886;SDS011;6511;49.746;6.094;2022-12-18T06:11:22;34.28;;;17.80;;
12886;SDS011;6511;49.746;6.094;2022-12-18T06:13:50;36.20;;;18.15;;
12886;SDS011;6511;49.746;6.094;2022-12-18T06:16:17;36.65;;;18.08;;
12886;SDS011;6511;49.746;6.094;2022-12-18T06:18:42;35.78;;;18.15;;
12886;SDS011;6511;49.746;6.094;2022-12-18T06:21:08;33.63;;;17.30;;
12886;SDS011;6511;49.746;6.094;2022-12-18T06:23:33;36.75;;;18.27;;
12886;SDS011;6511;49.746;6.094;2022-12-18T06:26:03;33.33;;;16.50;;
12886;SDS011;6511;49.746;6.094;2022-12-18T06:28:30;33.53;;;17.35;;
12886;SDS011;6511;49.746;6.094;2022-12-18T06:30:56;31.85;;;16.85;;
12886;SDS011;6511;49.746;6.094;2022-12-18T06:33:21;32.60;;;17.10;;
12886;SDS011;6511;49.746;6.094;2022-12-18T06:35:50;32.78;;;16.80;;
12886;SDS011;6511;49.746;6.094;2022-12-18T06:38:16;30.40;;;16.27;;
12886;SDS011;6511;49.746;6.094;2022-12-18T06:40:41;30.60;;;16.23;;
12886;SDS011;6511;49.746;6.094;2022-12-18T06:43:07;32.60;;;16.93;;
12886;SDS011;6511;49.746;6.094;2022-12-18T06:45:32;33.23;;;16.33;;
12886;SDS011;6511;49.746;6.094;2022-12-18T06:47:58;33.45;;;17.48;;
12886;SDS011;6511;49.746;6.094;2022-12-18T06:50:24;30.27;;;16.43;;
12886;SDS011;6511;49.746;6.094;2022-12-18T06:52:49;34.50;;;17.17;;
12886;SDS011;6511;49.746;6.094;2022-12-18T06:55:15;30.90;;;16.77;;
12886;SDS011;6511;49.746;6.094;2022-12-18T06:57:40;33.45;;;17.33;;
12886;SDS011;6511;49.746;6.094;2022-12-18T07:00:06;32.23;;;16.67;;
12886;SDS011;6511;49.746;6.094;2022-12-18T07:02:32;32.50;;;16.23;;
12886;SDS011;6511;49.746;6.094;2022-12-18T07:04:58;30.60;;;16.47;;
12886;SDS011;6511;49.746;6.094;2022-12-18T07:07:24;30.88;;;16.10;;
12886;SDS011;6511;49.746;6.094;2022-12-18T07:09:50;29.63;;;16.00;;
12886;SDS011;6511;49.746;6.094;2022-12-18T07:12:15;29.90;;;16.07;;
12886;SDS011;6511;49.746;6.094;2022-12-18T07:14:41;30.03;;;16.00;;
12886;SDS011;6511;49.746;6.094;2022-12-18T07:17:07;31.85;;;16.65;;
12886;SDS011;6511;49.746;6.094;2022-12-18T07:19:32;33.73;;;17.10;;
12886;SDS011;6511;49.746;6.094;2022-12-18T07:21:58;36.65;;;17.95;;
12886;SDS011;6511;49.746;6.094;2022-12-18T07:24:24;48.60;;;23.67;;
12886;SDS011;6511;49.746;6.094;2022-12-18T07:26:49;43.73;;;22.87;;
12886;SDS011;6511;49.746;6.094;2022-12-18T07:29:15;42.60;;;21.90;;
12886;SDS011;6511;49.746;6.094;2022-12-18T07:31:40;39.33;;;20.20;;
12886;SDS011;6511;49.746;6.094;2022-12-18T07:34:09;39.28;;;19.42;;
12886;SDS011;6511;49.746;6.094;2022-12-18T07:36:36;36.63;;;18.80;;
12886;SDS011;6511;49.746;6.094;2022-12-18T07:39:02;36.90;;;18.73;;
12886;SDS011;6511;49.746;6.094;2022-12-18T07:41:27;35.93;;;18.23;;
12886;SDS011;6511;49.746;6.094;2022-12-18T07:43:53;34.30;;;17.80;;
12886;SDS011;6511;49.746;6.094;2022-12-18T07:46:18;33.70;;;17.70;;
12886;SDS011;6511;49.746;6.094;2022-12-18T07:48:44;30.30;;;16.20;;
12886;SDS011;6511;49.746;6.094;2022-12-18T07:51:10;30.23;;;16.48;;
12886;SDS011;6511;49.746;6.094;2022-12-18T07:53:36;30.23;;;16.70;;
12886;SDS011;6511;49.746;6.094;2022-12-18T07:56:03;33.17;;;17.35;;
12886;SDS011;6511;49.746;6.094;2022-12-18T07:58:31;30.67;;;17.30;;
12886;SDS011;6511;49.746;6.094;2022-12-18T08:01:10;32.30;;;16.90;;
12886;SDS011;6511;49.746;6.094;2022-12-18T08:03:37;33.00;;;17.73;;
12886;SDS011;6511;49.746;6.094;2022-12-18T08:06:04;30.63;;;16.90;;
12886;SDS011;6511;49.746;6.094;2022-12-18T08:08:32;30.80;;;16.63;;
12886;SDS011;6511;49.746;6.094;2022-12-18T08:10:58;30.75;;;17.33;;
12886;SDS011;6511;49.746;6.094;2022-12-18T08:13:24;31.13;;;17.13;;
12886;SDS011;6511;49.746;6.094;2022-12-18T08:18:23;29.88;;;17.05;;
12886;SDS011;6511;49.746;6.094;2022-12-18T08:20:49;30.00;;;16.83;;
12886;SDS011;6511;49.746;6.094;2022-12-18T08:23:14;28.30;;;17.83;;
12886;SDS011;6511;49.746;6.094;2022-12-18T08:25:40;30.53;;;17.67;;
12886;SDS011;6511;49.746;6.094;2022-12-18T08:28:05;31.02;;;17.75;;
12886;SDS011;6511;49.746;6.094;2022-12-18T08:30:31;31.97;;;17.20;;
12886;SDS011;6511;49.746;6.094;2022-12-18T08:32:56;31.40;;;17.38;;
12886;SDS011;6511;49.746;6.094;2022-12-18T08:35:23;31.77;;;17.45;;
12886;SDS011;6511;49.746;6.094;2022-12-18T08:37:48;32.80;;;17.60;;
12886;SDS011;6511;49.746;6.094;2022-12-18T08:40:14;32.42;;;17.40;;
12886;SDS011;6511;49.746;6.094;2022-12-18T08:42:39;33.05;;;18.20;;
12886;SDS011;6511;49.746;6.094;2022-12-18T08:45:24;35.25;;;19.58;;
12886;SDS011;6511;49.746;6.094;2022-12-18T08:47:49;34.43;;;18.70;;
12886;SDS011;6511;49.746;6.094;2022-12-18T08:50:15;35.15;;;18.23;;
12886;SDS011;6511;49.746;6.094;2022-12-18T08:52:41;36.17;;;19.43;;
12886;SDS011;6511;49.746;6.094;2022-12-18T08:55:06;37.35;;;19.88;;
12886;SDS011;6511;49.746;6.094;2022-12-18T08:57:33;34.63;;;19.77;;
12886;SDS011;6511;49.746;6.094;2022-12-18T08:59:58;34.47;;;19.43;;
12886;SDS011;6511;49.746;6.094;2022-12-18T09:02:24;35.27;;;19.60;;
12886;SDS011;6511;49.746;6.094;2022-12-18T09:04:49;31.63;;;18.13;;
12886;SDS011;6511;49.746;6.094;2022-12-18T09:07:15;32.47;;;19.07;;
12886;SDS011;6511;49.746;6.094;2022-12-18T09:09:40;32.72;;;19.00;;
12886;SDS011;6511;49.746;6.094;2022-12-18T09:12:06;35.60;;;20.10;;
12886;SDS011;6511;49.746;6.094;2022-12-18T09:14:32;34.15;;;20.95;;
12886;SDS011;6511;49.746;6.094;2022-12-18T09:16:57;52.37;;;31.50;;
12886;SDS011;6511;49.746;6.094;2022-12-18T09:19:23;49.60;;;29.20;;
12886;SDS011;6511;49.746;6.094;2022-12-18T09:21:48;52.00;;;29.90;;
12886;SDS011;6511;49.746;6.094;2022-12-18T09:24:14;61.03;;;34.50;;
12886;SDS011;6511;49.746;6.094;2022-12-18T09:26:40;70.28;;;39.15;;
12886;SDS011;6511;49.746;6.094;2022-12-18T09:29:06;52.97;;;30.70;;
12886;SDS011;6511;49.746;6.094;2022-12-18T09:31:34;43.07;;;24.97;;
12886;SDS011;6511;49.746;6.094;2022-12-18T09:34:00;38.42;;;22.25;;
12886;SDS011;6511;49.746;6.094;2022-12-18T09:36:26;36.13;;;20.83;;
12886;SDS011;6511;49.746;6.094;2022-12-18T09:38:52;34.50;;;20.38;;
12886;SDS011;6511;49.746;6.094;2022-12-18T09:41:36;34.70;;;20.73;;
12886;SDS011;6511;49.746;6.094;2022-12-18T09:44:03;30.35;;;19.10;;
12886;SDS011;6511;49.746;6.094;2022-12-18T09:46:38;32.83;;;19.73;;
12886;SDS011;6511;49.746;6.094;2022-12-18T09:49:11;30.92;;;18.50;;
12886;SDS011;6511;49.746;6.094;2022-12-18T09:51:40;31.40;;;18.23;;
12886;SDS011;6511;49.746;6.094;2022-12-18T09:54:12;31.00;;;19.07;;
12886;SDS011;6511;49.746;6.094;2022-12-18T09:56:43;33.28;;;20.25;;
12886;SDS011;6511;49.746;6.094;2022-12-18T10:01:52;36.10;;;21.10;;
12886;SDS011;6511;49.746;6.094;2022-12-18T10:04:18;35.73;;;21.40;;
12886;SDS011;6511;49.746;6.094;2022-12-18T10:12:06;37.50;;;23.27;;
12886;SDS011;6511;49.746;6.094;2022-12-18T10:27:57;46.78;;;27.98;;
12886;SDS011;6511;49.746;6.094;2022-12-18T10:30:25;47.57;;;28.53;;
12886;SDS011;6511;49.746;6.094;2022-12-18T10:32:51;39.28;;;24.27;;
12886;SDS011;6511;49.746;6.094;2022-12-18T10:35:26;40.22;;;24.88;;
12886;SDS011;6511;49.746;6.094;2022-12-18T10:40:49;41.33;;;23.48;;
12886;SDS011;6511;49.746;6.094;2022-12-18T10:43:15;37.50;;;23.77;;
12886;SDS011;6511;49.746;6.094;2022-12-18T10:45:57;40.05;;;24.85;;
12886;SDS011;6511;49.746;6.094;2022-12-18T10:48:22;44.53;;;26.17;;
12886;SDS011;6511;49.746;6.094;2022-12-18T10:50:49;43.42;;;26.90;;
12886;SDS011;6511;49.746;6.094;2022-12-18T10:53:20;44.63;;;26.55;;
12886;SDS011;6511;49.746;6.094;2022-12-18T10:55:48;43.17;;;26.92;;
12886;SDS011;6511;49.746;6.094;2022-12-18T10:58:16;46.87;;;26.53;;
12886;SDS011;6511;49.746;6.094;2022-12-18T11:03:42;45.10;;;27.52;;
12886;SDS011;6511;49.746;6.094;2022-12-18T11:06:11;42.83;;;27.13;;
12886;SDS011;6511;49.746;6.094;2022-12-18T11:08:39;46.80;;;27.80;;
12886;SDS011;6511;49.746;6.094;2022-12-18T11:11:19;43.53;;;27.13;;
12886;SDS011;6511;49.746;6.094;2022-12-18T11:14:05;43.10;;;26.30;;
12886;SDS011;6511;49.746;6.094;2022-12-18T11:16:46;46.60;;;27.17;;
12886;SDS011;6511;49.746;6.094;2022-12-18T11:21:45;43.20;;;26.92;;
12886;SDS011;6511;49.746;6.094;2022-12-18T11:24:22;44.93;;;27.30;;
12886;SDS011;6511;49.746;6.094;2022-12-18T11:27:00;43.75;;;26.67;;
12886;SDS011;6511;49.746;6.094;2022-12-18T11:35:15;43.50;;;26.75;;
12886;SDS011;6511;49.746;6.094;2022-12-18T11:37:49;45.67;;;27.88;;
12886;SDS011;6511;49.746;6.094;2022-12-18T11:40:25;47.03;;;29.13;;
12886;SDS011;6511;49.746;6.094;2022-12-18T11:43:07;43.30;;;28.17;;
12886;SDS011;6511;49.746;6.094;2022-12-18T11:45:43;44.13;;;27.40;;
12886;SDS011;6511;49.746;6.094;2022-12-18T11:48:23;45.85;;;27.80;;
12886;SDS011;6511;49.746;6.094;2022-12-18T11:50:59;43.83;;;27.95;;
12886;SDS011;6511;49.746;6.094;2022-12-18T11:53:28;43.22;;;26.70;;
12886;SDS011;6511;49.746;6.094;2022-12-18T11:56:00;43.88;;;27.55;;
12886;SDS011;6511;49.746;6.094;2022-12-18T12:14:39;41.28;;;26.05;;
12886;SDS011;6511;49.746;6.094;2022-12-18T12:20:08;40.90;;;25.65;;
12886;SDS011;6511;49.746;6.094;2022-12-18T12:23:01;37.55;;;24.40;;
12886;SDS011;6511;49.746;6.094;2022-12-18T12:25:48;37.83;;;24.35;;
12886;SDS011;6511;49.746;6.094;2022-12-18T12:28:22;40.77;;;25.13;;
12886;SDS011;6511;49.746;6.094;2022-12-18T12:31:09;38.20;;;24.17;;
12886;SDS011;6511;49.746;6.094;2022-12-18T12:39:06;37.30;;;23.55;;
12886;SDS011;6511;49.746;6.094;2022-12-18T12:41:35;38.83;;;24.98;;
12886;SDS011;6511;49.746;6.094;2022-12-18T12:44:23;37.50;;;24.52;;
12886;SDS011;6511;49.746;6.094;2022-12-18T12:46:55;37.43;;;24.83;;
12886;SDS011;6511;49.746;6.094;2022-12-18T12:49:26;36.40;;;23.80;;
12886;SDS011;6511;49.746;6.094;2022-12-18T12:51:58;36.60;;;24.00;;
12886;SDS011;6511;49.746;6.094;2022-12-18T12:54:30;40.03;;;24.98;;
12886;SDS011;6511;49.746;6.094;2022-12-18T12:57:17;38.42;;;24.80;;
12886;SDS011;6511;49.746;6.094;2022-12-18T12:59:52;37.75;;;24.48;;
12886;SDS011;6511;49.746;6.094;2022-12-18T13:02:34;36.35;;;24.13;;
12886;SDS011;6511;49.746;6.094;2022-12-18T13:07:51;38.22;;;24.40;;
12886;SDS011;6511;49.746;6.094;2022-12-18T13:10:31;37.65;;;24.20;;
12886;SDS011;6511;49.746;6.094;2022-12-18T13:15:46;38.75;;;25.25;;
12886;SDS011;6511;49.746;6.094;2022-12-18T13:18:29;38.53;;;24.80;;
12886;SDS011;6511;49.746;6.094;2022-12-18T13:25:50;40.10;;;25.90;;
12886;SDS011;6511;49.746;6.094;2022-12-18T13:28:18;41.15;;;26.33;;
12886;SDS011;6511;49.746;6.094;2022-12-18T13:30:47;41.80;;;27.48;;
12886;SDS011;6511;49.746;6.094;2022-12-18T13:41:00;44.22;;;27.42;;
12886;SDS011;6511;49.746;6.094;2022-12-18T13:46:04;45.05;;;28.52;;
12886;SDS011;6511;49.746;6.094;2022-12-18T13:48:49;43.65;;;26.75;;
12886;SDS011;6511;49.746;6.094;2022-12-18T13:51:16;46.63;;;27.40;;
12886;SDS011;6511;49.746;6.094;2022-12-18T13:53:46;43.92;;;27.73;;
12886;SDS011;6511;49.746;6.094;2022-12-18T13:56:21;45.92;;;28.33;;
12886;SDS011;6511;49.746;6.094;2022-12-18T13:59:05;43.08;;;27.05;;
12886;SDS011;6511;49.746;6.094;2022-12-18T14:01:41;45.63;;;28.10;;
12886;SDS011;6511;49.746;6.094;2022-12-18T14:04:20;44.08;;;27.38;;
12886;SDS011;6511;49.746;6.094;2022-12-18T14:09:46;45.58;;;28.13;;
12886;SDS011;6511;49.746;6.094;2022-12-18T14:12:16;46.03;;;28.60;;
12886;SDS011;6511;49.746;6.094;2022-12-18T14:18:01;45.90;;;27.98;;
12886;SDS011;6511;49.746;6.094;2022-12-18T14:20:34;48.13;;;29.38;;
12886;SDS011;6511;49.746;6.094;2022-12-18T14:23:00;46.67;;;28.47;;
12886;SDS011;6511;49.746;6.094;2022-12-18T14:25:26;47.45;;;28.70;;
12886;SDS011;6511;49.746;6.094;2022-12-18T14:28:01;46.38;;;28.13;;
12886;SDS011;6511;49.746;6.094;2022-12-18T14:30:48;48.15;;;29.00;;
12886;SDS011;6511;49.746;6.094;2022-12-18T14:33:15;51.72;;;31.35;;
12886;SDS011;6511;49.746;6.094;2022-12-18T14:35:52;47.53;;;29.57;;
12886;SDS011;6511;49.746;6.094;2022-12-18T14:40:55;49.35;;;30.08;;
12886;SDS011;6511;49.746;6.094;2022-12-18T14:43:26;46.80;;;29.25;;
12886;SDS011;6511;49.746;6.094;2022-12-18T14:45:53;50.90;;;30.10;;
12886;SDS011;6511;49.746;6.094;2022-12-18T14:48:21;49.28;;;29.48;;
12886;SDS011;6511;49.746;6.094;2022-12-18T14:50:58;52.70;;;30.45;;
12886;SDS011;6511;49.746;6.094;2022-12-18T14:55:59;51.90;;;30.75;;
12886;SDS011;6511;49.746;6.094;2022-12-18T14:58:25;49.25;;;30.27;;
12886;SDS011;6511;49.746;6.094;2022-12-18T15:00:51;49.73;;;30.53;;
12886;SDS011;6511;49.746;6.094;2022-12-18T15:03:20;49.42;;;30.88;;
12886;SDS011;6511;49.746;6.094;2022-12-18T15:05:46;49.93;;;30.67;;
12886;SDS011;6511;49.746;6.094;2022-12-18T15:11:25;50.10;;;30.98;;
12886;SDS011;6511;49.746;6.094;2022-12-18T15:14:23;51.30;;;31.40;;
12886;SDS011;6511;49.746;6.094;2022-12-18T15:16:59;52.75;;;31.13;;
12886;SDS011;6511;49.746;6.094;2022-12-18T15:19:39;54.60;;;32.85;;
12886;SDS011;6511;49.746;6.094;2022-12-18T15:24:51;57.40;;;34.13;;
12886;SDS011;6511;49.746;6.094;2022-12-18T15:27:27;58.05;;;34.58;;
12886;SDS011;6511;49.746;6.094;2022-12-18T15:32:33;56.25;;;33.97;;
12886;SDS011;6511;49.746;6.094;2022-12-18T15:37:40;57.90;;;33.63;;
12886;SDS011;6511;49.746;6.094;2022-12-18T15:40:06;57.37;;;33.33;;
12886;SDS011;6511;49.746;6.094;2022-12-18T15:42:36;56.20;;;33.47;;
12886;SDS011;6511;49.746;6.094;2022-12-18T15:45:20;58.22;;;33.92;;
12886;SDS011;6511;49.746;6.094;2022-12-18T15:47:46;56.13;;;33.40;;
12886;SDS011;6511;49.746;6.094;2022-12-18T15:50:11;59.40;;;34.47;;
12886;SDS011;6511;49.746;6.094;2022-12-18T15:52:42;60.75;;;34.50;;
12886;SDS011;6511;49.746;6.094;2022-12-18T15:55:11;56.20;;;33.10;;
12886;SDS011;6511;49.746;6.094;2022-12-18T15:57:56;60.63;;;34.75;;
12886;SDS011;6511;49.746;6.094;2022-12-18T16:00:22;64.67;;;35.83;;
12886;SDS011;6511;49.746;6.094;2022-12-18T16:02:47;63.17;;;35.38;;
12886;SDS011;6511;49.746;6.094;2022-12-18T16:05:14;60.50;;;34.97;;
12886;SDS011;6511;49.746;6.094;2022-12-18T16:07:41;59.45;;;33.83;;
12886;SDS011;6511;49.746;6.094;2022-12-18T16:10:08;59.80;;;34.97;;
12886;SDS011;6511;49.746;6.094;2022-12-18T16:12:34;60.45;;;35.42;;
12886;SDS011;6511;49.746;6.094;2022-12-18T16:15:00;63.97;;;35.35;;
12886;SDS011;6511;49.746;6.094;2022-12-18T16:17:25;61.13;;;35.08;;
12886;SDS011;6511;49.746;6.094;2022-12-18T16:19:51;60.50;;;35.13;;
12886;SDS011;6511;49.746;6.094;2022-12-18T16:22:21;58.60;;;34.50;;
12886;SDS011;6511;49.746;6.094;2022-12-18T16:24:48;62.45;;;36.58;;
12886;SDS011;6511;49.746;6.094;2022-12-18T16:27:15;63.17;;;36.70;;
12886;SDS011;6511;49.746;6.094;2022-12-18T16:29:40;62.78;;;36.97;;
12886;SDS011;6511;49.746;6.094;2022-12-18T16:32:06;64.50;;;37.50;;
12886;SDS011;6511;49.746;6.094;2022-12-18T16:34:32;62.27;;;37.23;;
12886;SDS011;6511;49.746;6.094;2022-12-18T16:37:04;68.82;;;38.35;;
12886;SDS011;6511;49.746;6.094;2022-12-18T16:39:31;67.07;;;38.20;;
12886;SDS011;6511;49.746;6.094;2022-12-18T16:41:58;65.18;;;37.13;;
12886;SDS011;6511;49.746;6.094;2022-12-18T16:44:24;70.82;;;39.50;;
12886;SDS011;6511;49.746;6.094;2022-12-18T16:46:50;68.23;;;38.97;;
12886;SDS011;6511;49.746;6.094;2022-12-18T16:49:16;65.47;;;38.37;;
12886;SDS011;6511;49.746;6.094;2022-12-18T16:51:43;68.37;;;38.67;;
12886;SDS011;6511;49.746;6.094;2022-12-18T16:54:10;69.63;;;39.03;;